createdAt,value
2019-04-21T00:01:24.340Z,84.30
2019-04-21T00:04:02.551Z,84.80
2019-04-21T00:06:48.064Z,85.10
2019-04-21T00:09:27.800Z,85.50
2019-04-21T00:11:55.362Z,85.80
2019-04-21T00:14:15.373Z,85.90
2019-04-21T00:16:44.352Z,86.90
2019-04-21T00:19:43.006Z,88.00
2019-04-21T00:22:27.294Z,87.60
2019-04-21T00:25:04.363Z,87.70
2019-04-21T00:27:33.743Z,87.60
2019-04-21T00:30:14.134Z,88.90
2019-04-21T00:32:35.673Z,90.00
2019-04-21T00:35:02.543Z,90.10
2019-04-21T00:37:48.084Z,90.50
2019-04-21T00:40:22.723Z,90.70
2019-04-21T00:42:48.425Z,90.70
2019-04-21T00:45:18.169Z,90.70
2019-04-21T00:48:01.074Z,90.60
2019-04-21T00:50:34.464Z,90.50
2019-04-21T00:53:05.455Z,90.20
2019-04-21T00:55:48.547Z,90.80
2019-04-21T00:58:22.426Z,91.30
2019-04-21T01:00:58.979Z,91.60
2019-04-21T01:03:47.406Z,92.00
2019-04-21T01:05:58.979Z,92.30
2019-04-21T01:08:31.160Z,92.40
2019-04-21T01:10:57.018Z,92.40
2019-04-21T01:13:41.598Z,92.70
2019-04-21T01:16:10.170Z,92.90
2019-04-21T01:18:41.333Z,93.00
2019-04-21T01:20:51.430Z,93.10
2019-04-21T01:23:21.731Z,92.90
2019-04-21T01:26:06.812Z,92.60
2019-04-21T01:28:39.849Z,93.40
2019-04-21T01:31:15.468Z,94.10
2019-04-21T01:33:50.772Z,94.20
2019-04-21T01:36:18.144Z,94.80
2019-04-21T01:38:58.677Z,96.40
2019-04-21T01:41:29.278Z,96.60
2019-04-21T01:43:56.965Z,96.90
2019-04-21T01:46:25.930Z,98.60
2019-04-21T01:48:58.098Z,98.50
2019-04-21T01:51:29.573Z,99.10
2019-04-21T01:54:18.516Z,99.50
2019-04-21T01:56:51.994Z,99.90
2019-04-21T01:59:12.874Z,99.90
2019-04-21T02:02:00.450Z,99.90
2019-04-21T02:04:36.630Z,99.90
2019-04-21T02:07:03.254Z,99.90
2019-04-21T02:09:41.991Z,99.90
2019-04-21T02:12:16.641Z,99.90
2019-04-21T02:14:51.524Z,99.90
2019-04-21T02:17:18.587Z,99.90
2019-04-21T02:19:45.178Z,99.90
2019-04-21T02:22:19.278Z,99.90
2019-04-21T02:24:59.854Z,99.90
2019-04-21T02:27:33.068Z,99.90
2019-04-21T02:30:05.645Z,99.90
2019-04-21T02:32:44.217Z,99.90
2019-04-21T02:35:20.778Z,99.90
2019-04-21T02:40:25.716Z,99.90
2019-04-21T02:43:03.137Z,99.90
2019-04-21T02:45:22.897Z,99.90
2019-04-21T02:50:34.005Z,99.90
2019-04-21T02:53:01.321Z,99.90
2019-04-21T02:55:30.414Z,99.90
2019-04-21T02:58:18.612Z,99.90
2019-04-21T03:01:07.009Z,99.90
2019-04-21T03:03:52.955Z,99.90
2019-04-21T03:06:47.288Z,99.90
2019-04-21T03:09:20.431Z,99.90
2019-04-21T03:11:53.414Z,99.90
2019-04-21T03:14:31.506Z,99.90
2019-04-21T03:16:44.292Z,99.90
2019-04-21T03:19:28.944Z,99.90
2019-04-21T03:21:57.311Z,99.90
2019-04-21T03:24:31.194Z,99.90
2019-04-21T03:27:10.389Z,99.90
2019-04-21T03:32:36.749Z,99.90
2019-04-21T03:37:16.749Z,99.90
2019-04-21T03:39:48.513Z,99.90
2019-04-21T03:44:45.562Z,99.90
2019-04-21T03:47:22.872Z,99.90
2019-04-21T03:49:56.041Z,99.90
2019-04-21T04:03:44.243Z,99.90
2019-04-21T04:09:03.917Z,99.90
2019-04-21T04:14:06.346Z,99.90
2019-04-21T04:16:37.223Z,99.90
2019-04-21T04:18:59.138Z,99.90
2019-04-21T04:21:41.934Z,99.90
2019-04-21T04:24:07.197Z,99.90
2019-04-21T04:26:40.964Z,99.90
2019-04-21T04:29:16.284Z,99.90
2019-04-21T04:31:43.922Z,99.90
2019-04-21T04:42:35.060Z,99.90
2019-04-21T04:45:08.362Z,99.90
2019-04-21T04:47:30.474Z,99.90
2019-04-21T04:49:59.473Z,99.90
2019-04-21T04:52:48.523Z,99.90
2019-04-21T04:55:08.554Z,99.90
2019-04-21T04:57:57.223Z,99.90
2019-04-21T05:02:48.918Z,99.90
2019-04-21T05:05:19.361Z,99.90
2019-04-21T05:07:52.260Z,99.90
2019-04-21T05:10:29.401Z,99.90
2019-04-21T05:12:51.923Z,99.90
2019-04-21T05:15:25.560Z,99.90
2019-04-21T05:17:57.702Z,99.90
2019-04-21T05:20:24.533Z,99.90
2019-04-21T05:22:58.233Z,99.90
2019-04-21T05:25:25.041Z,99.90
2019-04-21T05:27:52.574Z,99.90
2019-04-21T05:31:06.316Z,99.90
2019-04-21T05:33:53.821Z,99.90
2019-04-21T05:36:42.399Z,99.90
2019-04-21T05:39:14.603Z,99.90
2019-04-21T05:41:42.899Z,99.90
2019-04-21T05:44:35.561Z,99.90
2019-04-21T05:47:15.847Z,99.90
2019-04-21T05:49:45.577Z,99.90
2019-04-21T05:52:19.639Z,99.90
2019-04-21T05:54:57.327Z,99.90
2019-04-21T05:57:31.852Z,99.90
2019-04-21T06:00:00.943Z,99.90
2019-04-21T06:02:30.708Z,99.90
2019-04-21T06:07:34.818Z,99.90
2019-04-21T06:10:07.198Z,99.90
2019-04-21T06:12:46.649Z,99.90
2019-04-21T06:15:15.268Z,99.90
2019-04-21T06:17:50.879Z,99.90
2019-04-21T06:20:20.645Z,99.90
2019-04-21T06:22:51.995Z,99.90
2019-04-21T06:27:57.463Z,99.90
2019-04-21T06:30:35.979Z,99.90
2019-04-21T06:33:00.006Z,99.90
2019-04-21T06:38:58.169Z,99.90
2019-04-21T06:41:21.333Z,99.90
2019-04-21T06:43:59.827Z,99.90
2019-04-21T06:46:30.849Z,99.90
2019-04-21T06:49:00.295Z,99.90
2019-04-21T06:54:03.548Z,99.90
2019-04-21T06:56:36.547Z,99.90
2019-04-21T06:59:05.977Z,99.90
2019-04-21T07:01:48.080Z,99.90
2019-04-21T07:04:18.504Z,99.50
2019-04-21T07:11:44.982Z,97.60
2019-04-21T07:19:30.657Z,97.60
2019-04-21T07:21:59.229Z,96.40
2019-04-21T07:24:31.521Z,96.50
2019-04-21T07:27:06.824Z,96.00
2019-04-21T07:29:34.622Z,95.60
2019-04-21T07:32:04.560Z,95.50
2019-04-21T07:34:39.719Z,92.90
2019-04-21T07:37:05.922Z,92.60
2019-04-21T07:39:40.628Z,90.40
2019-04-21T07:42:09.950Z,87.30
2019-04-21T07:44:42.572Z,90.30
2019-04-21T07:47:23.419Z,85.80
2019-04-21T07:52:39.546Z,79.80
2019-04-21T07:57:39.736Z,81.10
2019-04-21T08:00:29.336Z,82.40
2019-04-21T08:02:51.139Z,78.80
2019-04-21T08:05:37.584Z,76.40
2019-04-21T08:10:28.536Z,79.80
2019-04-21T08:12:55.628Z,79.60
2019-04-21T08:15:39.947Z,75.60
2019-04-21T08:18:07.467Z,76.80
2019-04-21T08:20:38.724Z,76.90
2019-04-21T08:23:13.063Z,76.50
2019-04-21T08:25:46.533Z,78.40
2019-04-21T08:28:12.200Z,77.80
2019-04-21T08:30:44.362Z,76.80
2019-04-21T08:33:26.533Z,78.40
2019-04-21T08:38:20.909Z,80.00
2019-04-21T08:40:58.998Z,76.70
2019-04-21T08:43:37.023Z,77.10
2019-04-21T08:46:01.574Z,76.70
2019-04-21T08:48:29.302Z,78.10
2019-04-21T08:51:18.105Z,78.10
2019-04-21T08:53:41.557Z,78.40
2019-04-21T08:56:33.930Z,76.90
2019-04-21T08:59:31.253Z,76.80
2019-04-21T09:02:06.318Z,75.10
2019-04-21T09:04:41.179Z,76.90
2019-04-21T09:07:21.329Z,76.60
2019-04-21T09:09:47.522Z,77.20
2019-04-21T09:12:16.093Z,78.20
2019-04-21T09:14:52.747Z,74.80
2019-04-21T09:17:16.374Z,71.70
2019-04-21T09:19:56.456Z,69.60
2019-04-21T09:22:24.409Z,71.30
2019-04-21T09:25:00.110Z,70.50
2019-04-21T09:27:26.964Z,70.50
2019-04-21T09:29:52.342Z,70.20
2019-04-21T09:32:21.423Z,65.50
2019-04-21T09:34:50.674Z,65.10
2019-04-21T09:37:33.054Z,60.60
2019-04-21T09:39:55.917Z,57.90
2019-04-21T09:42:33.246Z,60.60
2019-04-21T09:45:00.586Z,61.30
2019-04-21T09:47:39.679Z,59.60
2019-04-21T09:50:03.518Z,60.20
2019-04-21T09:52:41.854Z,60.90
2019-04-21T09:55:13.389Z,60.60
2019-04-21T09:57:47.494Z,59.00
2019-04-21T10:00:15.107Z,57.70
2019-04-21T10:02:53.508Z,54.40
2019-04-21T10:05:16.949Z,55.20
2019-04-21T10:07:48.838Z,54.50
2019-04-21T10:10:19.873Z,54.50
2019-04-21T10:12:50.338Z,50.40
2019-04-21T10:15:23.623Z,53.70
2019-04-21T10:17:56.455Z,52.10
2019-04-21T10:20:28.497Z,50.10
2019-04-21T10:22:59.607Z,49.40
2019-04-21T10:25:30.703Z,49.90
2019-04-21T10:28:01.352Z,49.80
2019-04-21T10:30:33.006Z,48.70
2019-04-21T10:33:04.037Z,48.60
2019-04-21T10:35:35.262Z,48.10
2019-04-21T10:38:17.019Z,48.50
2019-04-21T10:40:39.170Z,47.10
2019-04-21T10:43:12.036Z,47.20
2019-04-21T10:45:43.150Z,47.50
2019-04-21T10:48:14.737Z,48.00
2019-04-21T10:50:47.286Z,46.50
2019-04-21T10:53:24.843Z,49.30
2019-04-21T10:56:09.771Z,48.40
2019-04-21T10:58:34.060Z,49.10
2019-04-21T11:01:10.605Z,49.50
2019-04-21T11:03:51.112Z,47.50
2019-04-21T11:06:21.764Z,48.80
2019-04-21T11:08:55.534Z,49.60
2019-04-21T11:11:25.912Z,49.20
2019-04-21T11:13:56.876Z,53.70
2019-04-21T11:16:29.049Z,55.10
2019-04-21T11:19:00.010Z,51.90
2019-04-21T11:21:31.138Z,50.90
2019-04-21T11:24:02.181Z,51.70
2019-04-21T11:26:33.795Z,53.00
2019-04-21T11:29:05.190Z,54.40
2019-04-21T11:31:36.908Z,54.00
2019-04-21T11:34:07.393Z,52.90
2019-04-21T11:36:37.916Z,53.10
2019-04-21T11:39:37.575Z,51.10
2019-04-21T11:42:05.935Z,52.30
2019-04-21T11:44:37.334Z,52.60
2019-04-21T11:47:10.506Z,54.40
2019-04-21T11:49:41.196Z,44.60
2019-04-21T11:52:13.335Z,49.40
2019-04-21T11:54:44.654Z,52.90
2019-04-21T11:57:23.961Z,54.80
2019-04-21T11:59:47.992Z,48.60
2019-04-21T12:02:19.420Z,51.70
2019-04-21T12:04:49.916Z,51.70
2019-04-21T12:07:20.548Z,51.00
2019-04-21T12:09:51.339Z,50.40
2019-04-21T12:12:21.782Z,50.80
2019-04-21T12:14:52.445Z,52.10
2019-04-21T12:17:23.720Z,53.20
2019-04-21T12:19:54.747Z,52.00
2019-04-21T12:22:28.887Z,51.90
2019-04-21T12:24:57.832Z,52.20
2019-04-21T12:27:29.833Z,52.00
2019-04-21T12:30:01.935Z,52.50
2019-04-21T12:32:48.578Z,51.00
2019-04-21T12:35:19.715Z,51.60
2019-04-21T12:37:51.057Z,51.30
2019-04-21T12:40:21.667Z,51.10
2019-04-21T12:42:52.504Z,50.50
2019-04-21T12:45:24.075Z,52.90
2019-04-21T12:47:55.752Z,52.40
2019-04-21T12:50:27.788Z,55.00
2019-04-21T12:52:58.193Z,53.50
2019-04-21T12:55:31.587Z,54.80
2019-04-21T12:58:01.428Z,53.70
2019-04-21T13:00:33.276Z,52.20
2019-04-21T13:03:05.714Z,53.50
2019-04-21T13:05:37.807Z,54.70
2019-04-21T13:08:09.194Z,54.60
2019-04-21T13:10:40.226Z,53.90
2019-04-21T13:13:12.133Z,54.40
2019-04-21T13:15:43.331Z,57.60
2019-04-21T13:18:14.334Z,53.60
2019-04-21T13:20:46.373Z,57.30
2019-04-21T13:23:17.106Z,54.40
2019-04-21T13:25:47.908Z,54.10
2019-04-21T13:28:19.042Z,55.00
2019-04-21T13:30:50.634Z,54.80
2019-04-21T13:33:22.864Z,55.00
2019-04-21T13:35:55.028Z,55.10
2019-04-21T13:38:33.005Z,54.80
2019-04-21T13:41:22.687Z,55.10
2019-04-21T13:43:41.167Z,55.20
2019-04-21T13:46:12.192Z,51.30
2019-04-21T13:48:44.426Z,55.40
2019-04-21T13:51:15.477Z,56.10
2019-04-21T13:53:46.019Z,54.60
2019-04-21T13:56:16.489Z,54.60
2019-04-21T13:58:48.286Z,51.10
2019-04-21T14:01:19.528Z,52.30
2019-04-21T14:03:51.394Z,54.60
2019-04-21T14:06:22.576Z,54.40
2019-04-21T14:08:53.022Z,52.30
2019-04-21T14:11:23.393Z,52.00
2019-04-21T14:13:54.465Z,51.60
2019-04-21T14:16:26.638Z,54.60
2019-04-21T14:18:57.225Z,53.10
2019-04-21T14:21:27.714Z,52.40
2019-04-21T14:23:59.453Z,50.20
2019-04-21T14:26:32.056Z,51.10
2019-04-21T14:29:03.589Z,52.10
2019-04-21T14:31:34.682Z,52.10
2019-04-21T14:34:05.958Z,52.10
2019-04-21T14:36:37.118Z,51.10
2019-04-21T14:39:12.550Z,51.50
2019-04-21T14:41:44.170Z,49.20
2019-04-21T14:44:15.249Z,50.80
2019-04-21T14:46:57.451Z,51.70
2019-04-21T14:49:35.264Z,53.60
2019-04-21T14:52:19.102Z,55.20
2019-04-21T14:55:00.768Z,51.90
2019-04-21T14:57:31.642Z,53.90
2019-04-21T15:00:03.023Z,52.10
2019-04-21T15:02:33.969Z,49.40
2019-04-21T15:05:04.674Z,51.80
2019-04-21T15:07:35.601Z,51.50
2019-04-21T15:10:13.297Z,51.60
2019-04-21T15:12:39.372Z,50.70
2019-04-21T15:15:09.921Z,48.20
2019-04-21T15:17:41.925Z,48.20
2019-04-21T15:20:15.844Z,48.00
2019-04-21T15:22:46.235Z,48.70
2019-04-21T15:25:18.377Z,46.40
2019-04-21T15:27:48.843Z,47.40
2019-04-21T15:30:20.647Z,46.00
2019-04-21T15:32:51.051Z,43.10
2019-04-21T15:35:21.487Z,41.70
2019-04-21T15:37:53.645Z,42.50
2019-04-21T15:40:35.256Z,42.70
2019-04-21T15:42:56.811Z,42.00
2019-04-21T15:45:28.427Z,41.30
2019-04-21T15:48:00.161Z,42.30
2019-04-21T15:50:30.523Z,40.90
2019-04-21T15:53:05.481Z,42.20
2019-04-21T15:56:04.646Z,42.60
2019-04-21T15:58:50.576Z,42.00
2019-04-21T16:01:42.885Z,43.90
2019-04-21T16:04:14.620Z,42.30
2019-04-21T16:06:45.693Z,41.60
2019-04-21T16:09:20.980Z,42.90
2019-04-21T16:11:49.699Z,45.20
2019-04-21T16:14:20.723Z,43.20
2019-04-21T16:16:51.722Z,43.80
2019-04-21T16:19:23.020Z,41.90
2019-04-21T16:21:54.414Z,44.10
2019-04-21T16:24:25.373Z,43.20
2019-04-21T16:26:56.527Z,42.80
2019-04-21T16:29:27.288Z,43.20
2019-04-21T16:31:59.524Z,43.90
2019-04-21T16:34:42.749Z,44.10
2019-04-21T16:37:03.585Z,45.40
2019-04-21T16:39:35.478Z,46.00
2019-04-21T16:42:08.357Z,46.70
2019-04-21T16:44:38.898Z,46.60
2019-04-21T16:47:09.707Z,45.50
2019-04-21T16:49:40.206Z,45.40
2019-04-21T16:52:14.519Z,46.70
2019-04-21T16:54:47.697Z,47.10
2019-04-21T16:57:35.640Z,47.00
2019-04-21T17:00:11.109Z,45.40
2019-04-21T17:02:42.777Z,44.40
2019-04-21T17:05:14.387Z,44.20
2019-04-21T17:07:45.096Z,43.50
2019-04-21T17:10:16.960Z,45.30
2019-04-21T17:12:48.016Z,45.80
2019-04-21T17:15:32.411Z,47.10
2019-04-21T17:18:07.584Z,47.80
2019-04-21T17:20:34.155Z,47.60
2019-04-21T17:22:55.679Z,47.60
2019-04-21T17:25:27.891Z,48.90
2019-04-21T17:27:58.810Z,49.10
2019-04-21T17:30:30.532Z,49.70
2019-04-21T17:33:01.635Z,50.40
2019-04-21T17:35:33.217Z,51.20
2019-04-21T17:38:04.029Z,52.70
2019-04-21T17:40:36.240Z,53.20
2019-04-21T17:43:10.742Z,53.10
2019-04-21T17:45:39.531Z,53.50
2019-04-21T17:48:13.888Z,53.90
2019-04-21T17:50:49.686Z,54.10
2019-04-21T17:53:30.300Z,54.70
2019-04-21T17:56:18.777Z,55.60
2019-04-21T17:58:52.652Z,56.00
2019-04-21T18:01:26.316Z,56.40
2019-04-21T18:06:36.684Z,56.50
2019-04-21T18:09:15.534Z,56.90
2019-04-21T18:11:46.232Z,57.10
2019-04-21T18:13:55.563Z,57.00
2019-04-21T18:16:35.846Z,56.70
2019-04-21T18:18:59.171Z,54.70
2019-04-21T18:21:38.904Z,53.90
2019-04-21T18:24:15.611Z,53.00
2019-04-21T18:26:53.098Z,53.10
2019-04-21T18:29:16.345Z,53.30
2019-04-21T18:31:50.182Z,52.80
2019-04-21T18:35:01.525Z,53.90
2019-04-21T18:37:49.336Z,53.40
2019-04-21T18:40:26.985Z,54.00
2019-04-21T18:43:23.915Z,54.50
2019-04-21T18:46:22.412Z,54.80
2019-04-21T18:48:59.172Z,55.80
2019-04-21T18:51:57.172Z,57.30
2019-04-21T18:54:41.434Z,58.90
2019-04-21T18:57:07.679Z,59.00
2019-04-21T18:59:34.632Z,58.60
2019-04-21T19:02:06.395Z,59.40
2019-04-21T19:04:36.841Z,59.70
2019-04-21T19:07:19.993Z,59.40
2019-04-21T19:12:47.347Z,60.20
2019-04-21T19:14:58.157Z,60.30
2019-04-21T19:22:38.740Z,62.10
2019-04-21T19:25:26.901Z,62.60
2019-04-21T19:27:45.160Z,62.70
2019-04-21T19:30:22.134Z,63.00
2019-04-21T19:32:45.700Z,62.70
2019-04-21T19:35:05.225Z,63.10
2019-04-21T19:37:44.029Z,62.90
2019-04-21T19:40:27.578Z,63.10
2019-04-21T19:42:53.292Z,63.30
2019-04-21T19:45:27.924Z,62.90
2019-04-21T19:48:08.136Z,63.30
2019-04-21T19:50:42.438Z,63.20
2019-04-21T19:52:59.731Z,63.80
2019-04-21T19:55:22.264Z,63.90
2019-04-21T19:57:53.092Z,64.30
2019-04-21T20:00:24.462Z,64.00
2019-04-21T20:02:56.617Z,64.50
2019-04-21T20:05:38.420Z,64.50
2019-04-21T20:08:17.374Z,64.80
2019-04-21T20:10:48.551Z,64.50
2019-04-21T20:13:36.418Z,64.70
2019-04-21T20:15:57.022Z,64.50
2019-04-21T20:18:22.270Z,65.30
2019-04-21T20:20:43.737Z,65.00
2019-04-21T20:23:22.150Z,64.80
2019-04-21T20:25:53.128Z,64.40
2019-04-21T20:28:33.364Z,64.60
2019-04-21T20:31:14.700Z,65.00
2019-04-21T20:33:52.600Z,65.00
2019-04-21T20:36:21.126Z,64.50
2019-04-21T20:38:40.374Z,64.60
2019-04-21T20:41:18.302Z,65.10
2019-04-21T20:43:54.251Z,65.30
2019-04-21T20:46:28.270Z,66.60
2019-04-21T20:48:52.317Z,67.20
2019-04-21T20:51:31.060Z,66.60
2019-04-21T20:53:53.857Z,66.40
2019-04-21T20:56:29.018Z,66.10
2019-04-21T20:59:07.746Z,66.40
2019-04-21T21:01:39.351Z,66.40
2019-04-21T21:04:06.327Z,66.40
2019-04-21T21:06:40.686Z,66.70
2019-04-21T21:09:09.856Z,66.90
2019-04-21T21:12:04.106Z,67.20
2019-04-21T21:14:16.036Z,67.80
2019-04-21T21:17:01.318Z,67.70
2019-04-21T21:19:32.970Z,68.20
2019-04-21T21:21:55.446Z,68.30
2019-04-21T21:24:36.199Z,68.50
2019-04-21T21:26:59.373Z,68.90
2019-04-21T21:29:49.899Z,69.40
2019-04-21T21:32:25.834Z,69.60
2019-04-21T21:35:01.323Z,70.00
2019-04-21T21:37:38.093Z,70.90
2019-04-21T21:40:08.307Z,71.30
2019-04-21T21:42:23.121Z,71.50
2019-04-21T21:45:00.461Z,71.80
2019-04-21T21:47:37.587Z,71.20
2019-04-21T21:50:04.722Z,71.30
2019-04-21T21:52:40.496Z,72.20
2019-04-21T21:54:58.848Z,72.60
2019-04-21T21:57:32.904Z,73.00
2019-04-21T22:00:06.777Z,73.60
2019-04-21T22:02:42.108Z,74.60
2019-04-21T22:05:13.261Z,74.90
2019-04-21T22:07:40.558Z,75.50
2019-04-21T22:10:12.463Z,76.10
2019-04-21T22:12:50.459Z,76.90
2019-04-21T22:15:19.703Z,77.70
2019-04-21T22:18:12.104Z,78.40
2019-04-21T22:20:37.317Z,78.80
2019-04-21T22:23:01.499Z,79.50
2019-04-21T22:25:29.964Z,79.90
2019-04-21T22:27:58.119Z,80.70
2019-04-21T22:30:34.927Z,81.30
2019-04-21T22:33:08.034Z,82.90
2019-04-21T22:35:42.021Z,83.10
2019-04-21T22:38:20.905Z,84.20
2019-04-21T22:40:51.936Z,85.60
2019-04-21T22:43:21.729Z,86.90
2019-04-21T22:45:45.224Z,87.80
2019-04-21T22:48:20.987Z,89.20
2019-04-21T22:50:48.887Z,89.40
2019-04-21T22:53:19.773Z,90.20
2019-04-21T22:56:00.405Z,90.80
2019-04-21T22:58:29.375Z,91.30
2019-04-21T23:00:59.872Z,91.90
2019-04-21T23:03:30.294Z,92.20
2019-04-21T23:06:07.576Z,92.50
2019-04-21T23:08:36.935Z,93.20
2019-04-21T23:11:10.025Z,93.40
2019-04-21T23:13:38.643Z,94.50
2019-04-21T23:16:09.890Z,95.20
2019-04-21T23:18:55.425Z,96.00
2019-04-21T23:21:24.834Z,96.60
2019-04-21T23:24:04.505Z,97.20
2019-04-21T23:26:32.730Z,97.40
2019-04-21T23:29:12.641Z,97.20
2019-04-21T23:31:40.703Z,97.30
2019-04-21T23:33:55.006Z,97.50
2019-04-21T23:36:29.642Z,97.50
2019-04-21T23:38:58.540Z,97.80
2019-04-21T23:41:36.178Z,98.20
2019-04-21T23:44:06.173Z,98.40
2019-04-21T23:46:36.655Z,98.30
2019-04-21T23:49:19.784Z,98.30
2019-04-21T23:51:45.835Z,98.10
2019-04-21T23:54:11.403Z,98.10
2019-04-21T23:56:45.570Z,97.80
2019-04-21T23:59:16.081Z,98.30
